createdAt,value
2022-10-18T00:00:29.255Z,79
2022-10-18T00:30:29.197Z,80
2022-10-18T00:45:29.123Z,80
2022-10-18T01:00:29.163Z,81
2022-10-18T01:15:29.087Z,81
2022-10-18T01:30:29.092Z,82
2022-10-18T01:45:29.047Z,82
2022-10-18T02:00:29.054Z,83
2022-10-18T02:15:28.991Z,83
2022-10-18T02:30:29.023Z,83
2022-10-18T02:45:28.941Z,84
2022-10-18T03:00:28.970Z,84
2022-10-18T03:15:28.910Z,84
2022-10-18T03:30:28.933Z,84
2022-10-18T03:45:31.253Z,84
2022-10-18T04:00:28.863Z,85
2022-10-18T04:15:28.822Z,85
2022-10-18T04:30:28.836Z,85
2022-10-18T04:45:28.806Z,85
2022-10-18T05:00:28.785Z,86
2022-10-18T05:15:28.748Z,86
2022-10-18T05:30:28.757Z,87
2022-10-18T05:45:28.690Z,88
2022-10-18T06:00:28.706Z,88
2022-10-18T06:15:28.658Z,89
2022-10-18T06:30:28.673Z,89
2022-10-18T06:45:28.600Z,90
2022-10-18T07:00:28.640Z,91
2022-10-18T07:15:28.620Z,90
2022-10-18T07:30:28.568Z,86
2022-10-18T07:45:28.595Z,83
2022-10-18T08:00:28.535Z,80
2022-10-18T08:15:28.496Z,76
2022-10-18T08:30:28.465Z,75
2022-10-18T08:45:40.908Z,71
2022-10-18T09:00:28.406Z,70
2022-10-18T09:15:28.350Z,72
2022-10-18T09:30:28.375Z,73
2022-10-18T09:45:28.313Z,73
2022-10-18T10:00:28.318Z,73
2022-10-18T10:15:31.357Z,70
2022-10-18T10:30:28.273Z,67
2022-10-18T10:45:28.202Z,64
2022-10-18T11:00:28.201Z,62
2022-10-18T11:15:28.154Z,62
2022-10-18T11:30:28.174Z,62
2022-10-18T11:45:28.144Z,62
2022-10-18T12:15:28.063Z,61
2022-10-18T12:30:28.022Z,60
2022-10-18T12:45:27.996Z,60
2022-10-18T13:00:27.982Z,60
2022-10-18T13:15:30.086Z,58
2022-10-18T13:30:27.906Z,57
2022-10-18T13:45:27.892Z,57
2022-10-18T14:00:27.880Z,57
2022-10-18T14:15:27.823Z,57
2022-10-18T14:30:27.839Z,57
2022-10-18T14:45:27.783Z,56
2022-10-18T15:00:27.784Z,57
2022-10-18T15:15:27.740Z,56
2022-10-18T15:30:27.724Z,57
2022-10-18T15:45:27.671Z,57
2022-10-18T16:00:27.674Z,58
2022-10-18T16:15:27.611Z,59
2022-10-18T16:30:27.637Z,59
2022-10-18T16:45:27.547Z,60
2022-10-18T17:00:27.763Z,61
2022-10-18T17:15:30.471Z,62
2022-10-18T17:30:27.509Z,62
2022-10-18T17:45:27.458Z,63
2022-10-18T18:00:27.465Z,63
2022-10-18T18:15:27.434Z,64
2022-10-18T18:30:27.394Z,65
2022-10-18T18:45:27.367Z,66
2022-10-18T19:00:27.365Z,66
2022-10-18T19:15:27.330Z,67
2022-10-18T19:30:27.315Z,68
2022-10-18T19:45:27.249Z,69
2022-10-18T20:00:27.281Z,69
2022-10-18T20:15:27.216Z,71
2022-10-18T20:45:27.193Z,72
2022-10-18T21:00:27.179Z,73
2022-10-18T21:15:27.137Z,74
2022-10-18T21:30:27.110Z,75
2022-10-18T21:45:27.091Z,77
2022-10-18T22:00:27.079Z,78
2022-10-18T22:15:27.137Z,79
2022-10-18T22:30:27.018Z,80
2022-10-18T22:45:27.003Z,81
2022-10-18T23:00:27.052Z,81
2022-10-18T23:15:26.911Z,82
2022-10-18T23:30:26.933Z,81
2022-10-18T23:45:26.911Z,81
